Monday, December 17, 2018, 11:29 AM EST
Back to Local

KMHT, Manchester Airport

Location: Manchester, NH, United States Lat: 42.933
Local Time: 11:29 AM EST (16:29 GMT) Lon: -71.433
Time Zone: US/Eastern Elev: 232 ft

Show me the last for .
Show Decoded

2018-12-17 10:53 METAR KMHT 171553Z 32005KT 10SM FEW009 BKN025 OVC033 02/00 A2959 RMK AO2 DZE15
                 SLP035 P0000 T00220000 =
2018-12-17 10:34 METAR KMHT 171534Z 31007KT 10SM SCT009 SCT013 OVC025 02/01 A2960 RMK AO2 DZE15
                 P0000 T00220006 =
2018-12-17 09:53 METAR KMHT 171453Z 32005KT 5SM -DZ BR BKN007 OVC036 02/01 A2962 RMK AO2 SLP048
                 P0000 60000 T00220006 58013 =
2018-12-17 08:53 METAR KMHT 171353Z 33007KT 1 3/4SM -DZ BR BKN007 OVC012 01/01 A2965 RMK AO2 SFC
                 VIS 4 RAE50DZB50 CIG 005V010 SLP058 P0000 T00110006 =
2018-12-17 08:24 METAR KMHT 171324Z 32006KT 1 1/2SM -RA BR BKN007 BKN013 OVC019 01/00 A2966 RMK
                 AO2 SFC VIS 5 P0000 T00110000 =
2018-12-17 08:19 METAR KMHT 171319Z 32005KT 1 1/2SM -RA BR SCT007 SCT013 OVC019 01/00 A2966 RMK
                 AO2 SFC VIS 4 P0000 T00110000 =
2018-12-17 07:59 METAR KMHT 171259Z 34007KT 9SM -RA FEW007 SCT012 OVC017 01/00 A2966 RMK AO2
                 P0000 T00110000 =
2018-12-17 07:53 METAR KMHT 171253Z 34007KT 9SM -RA BKN012 OVC017 01/00 A2966 RMK AO2 SLP061
                 P0000 T00110000 =
2018-12-17 07:14 METAR KMHT 171214Z 32006KT 10SM -RA BKN011 OVC016 01/00 A2967 RMK AO2 CIG
                 006V014 P0000 T00110000 =
2018-12-17 06:53 METAR KMHT 171153Z 33006KT 10SM -RA BKN009 OVC016 01/00 A2966 RMK AO2 SNE00 CIG
                 006V013 SLP061 P0000 60002 70035 I6000 T00110000 10022 20006 56009 =
2018-12-17 06:51 METAR KMHT 171151Z 34006KT 3SM -RA SCT007 BKN011 OVC015 01/00 A2966 RMK AO2 SFC
                 VIS 10 SNE00 P0000 =
2018-12-17 06:00 METAR KMHT 171100Z 33008KT 3SM -RA FEW009 OVC017 01/00 A2968 RMK AO2 SFC VIS 7
                 SNE00 P0000 T00110000 =
2018-12-17 05:53 METAR KMHT 171053Z 33009KT 6SM -SNRA BR SCT009 OVC017 01/00 A2968 RMK AO2
                 RAE21B38 SLP069 P0000 T00060000 =
2018-12-17 05:46 METAR KMHT 171046Z 33008KT 6SM -SNRA BR SCT009 OVC017 01/00 A2968 RMK AO2
                 RAE21B38 P0000 T00060000 =
2018-12-17 04:53 METAR KMHT 170953Z COR 35009KT 4SM -SNRA BR BKN009 OVC013 01/00 A2969 RMK AO2
                 PLE23SNB23 SLP070 P0000 T00060000 =
2018-12-17 04:24 METAR KMHT 170924Z 34008KT 4SM -SNRA BKN009 OVC013 01/00 A2970 RMK AO2
                 PLE23SNB23 P0000 T00060000 =
2018-12-17 03:53 METAR KMHT 170853Z 35011KT 4SM -RAPL BR BKN007 OVC013 01/M01 A2971 RMK AO2
                 SLP078 P0001 60002 I1000 I3000 T00061006 58017 =
2018-12-17 02:53 METAR KMHT 170753Z 35008KT 4SM -RAPL BR BKN007 OVC011 01/00 A2973 RMK AO2 SLP083
                 P0001 T00060000 =
2018-12-17 01:53 METAR KMHT 170653Z 36010KT 5SM -RAPL BR OVC009 02/00 A2974 RMK AO2 SLP090 P0000
                 T00170000 =
2018-12-17 01:10 METAR KMHT 170610Z 01011KT 4SM -RAPL BR OVC009 02/01 A2976 RMK AO2 P0000
                 T00170006 =
2018-12-17 00:53 METAR KMHT 170553Z 02009KT 8SM -RAPL OVC012 02/01 A2976 RMK AO2 SLP095 P0000
                 60033 T00220006 10033 20017 58034 =
2018-12-16 23:53 METAR KMHT 170453Z 01010KT 10SM -RAPL OVC012 02/01 A2979 RMK AO2 SLP106 P0001
                 T00220006 400391022 =
2018-12-16 22:53 METAR KMHT 170353Z 02009KT 9SM -PLRA OVC012 02/00 A2983 RMK AO2 SLP119 P0001
                 T00170000 =
2018-12-16 22:18 METAR KMHT 170318Z 01009KT 10SM -PLRA OVC014 02/00 A2985 RMK AO2 P0001 T00170000
                 =
2018-12-16 22:09 METAR KMHT 170309Z 01010KT 7SM RAPL OVC014 02/00 A2985 RMK AO2 P0001 T00170000 =
2018-12-16 21:53 METAR KMHT 170253Z 01008KT 6SM RAPL BR OVC016 02/00 A2986 RMK AO2 SLP129 P0019
                 60031 T00170000 58025 =
2018-12-16 20:53 METAR KMHT 170153Z 01008KT 5SM -RAPL BR OVC017 02/00 A2989 RMK AO2 SLP139 P0012
                 T00220000 =
2018-12-16 19:53 METAR KMHT 170053Z 02009KT 10SM -RAPL BKN018 OVC080 03/M01 A2991 RMK AO2
                 RAB25PLB25 SLP147 P0000 T00281006 =
2018-12-16 19:25 METAR KMHT 170025Z 03010KT 10SM -RAPL OVC018 03/M01 A2993 RMK AO2 RAB25PLB25
                 P0000 T00331011 =
2018-12-16 18:53 METAR KMHT 162353Z 02009KT 10SM OVC018 03/M01 A2993 RMK AO2 SLP154 60000
                 T00331011 10039 20033 58013 =
2018-12-16 17:53 METAR KMHT 162253Z 03008KT 10SM BKN018 OVC024 03/M01 A2995 RMK AO2 SLP160
                 T00331011 =
2018-12-16 16:53 METAR KMHT 162153Z 02011KT 10SM BKN015 OVC025 03/M01 A2996 RMK AO2 SLP162
                 T00331006 =
2018-12-16 15:53 METAR KMHT 162053Z 02008KT 10SM OVC017 04/M01 A2997 RMK AO2 SLP167 60000
                 T00391006 56024 =
2018-12-16 14:53 METAR KMHT 161953Z 03007KT 10SM OVC023 04/M01 A2999 RMK AO2 SLP174 T00391006 =
2018-12-16 13:53 METAR KMHT 161853Z 03009KT 10SM FEW018 OVC024 04/M01 A3001 RMK AO2 RAB27E34
                 SLP179 P0000 T00391006 =
2018-12-16 12:53 METAR KMHT 161753Z 02005KT 10SM SCT014 BKN024 OVC029 03/M01 A3004 RMK AO2 SLP191
                 T00331011 10033 21011 58045 =
2018-12-16 12:10 METAR KMHT 161710Z 03008KT 10SM BKN014 OVC025 03/M01 A3007 RMK AO2 T00281011 =
2018-12-16 11:53 METAR KMHT 161653Z 02009KT 10SM SCT015 BKN020 OVC028 03/M02 A3009 RMK AO2 SLP205
                 T00281017 =

Support USWX by starting your Amazon purchase here.